createdAt,value
2017-07-18T00:01:44.734Z,70.80
2017-07-18T00:04:12.260Z,70.80
2017-07-18T00:06:39.843Z,71.00
2017-07-18T00:09:08.131Z,70.20
2017-07-18T00:11:35.672Z,70.20
2017-07-18T00:14:03.255Z,70.00
2017-07-18T00:16:30.780Z,70.10
2017-07-18T00:18:59.123Z,70.00
2017-07-18T00:21:26.653Z,70.10
2017-07-18T00:23:54.211Z,69.80
2017-07-18T00:26:21.732Z,69.70
2017-07-18T00:28:50.058Z,70.10
2017-07-18T00:31:17.588Z,70.10
2017-07-18T00:33:45.153Z,70.40
2017-07-18T00:36:12.695Z,70.40
2017-07-18T00:38:40.273Z,71.40
2017-07-18T00:41:08.574Z,72.10
2017-07-18T00:43:36.139Z,71.90
2017-07-18T00:46:03.668Z,72.30
2017-07-18T00:48:31.248Z,72.20
2017-07-18T00:50:58.793Z,72.40
2017-07-18T00:53:26.328Z,72.20
2017-07-18T00:55:53.883Z,72.40
2017-07-18T00:58:21.409Z,72.10
2017-07-18T01:00:48.979Z,72.80
2017-07-18T01:03:16.511Z,72.70
2017-07-18T01:05:44.088Z,73.60
2017-07-18T01:08:11.624Z,73.60
2017-07-18T01:10:39.184Z,73.10
2017-07-18T01:13:06.710Z,73.50
2017-07-18T01:15:34.235Z,73.20
2017-07-18T01:18:02.572Z,72.50
2017-07-18T01:20:30.110Z,72.50
2017-07-18T01:22:57.683Z,72.70
2017-07-18T01:25:25.211Z,72.70
2017-07-18T01:27:52.772Z,72.80
2017-07-18T01:30:20.303Z,72.10
2017-07-18T01:32:47.880Z,73.30
2017-07-18T01:35:16.196Z,74.10
2017-07-18T01:37:43.724Z,73.20
2017-07-18T01:40:11.285Z,72.40
2017-07-18T01:42:38.813Z,72.60
2017-07-18T01:45:06.385Z,74.10
2017-07-18T01:47:33.915Z,72.30
2017-07-18T01:50:01.485Z,72.80
2017-07-18T01:52:29.020Z,72.80
2017-07-18T01:54:56.588Z,72.80
2017-07-18T01:57:24.128Z,72.90
2017-07-18T01:59:51.699Z,73.00
2017-07-18T02:02:20.372Z,73.40
2017-07-18T02:04:47.945Z,74.00
2017-07-18T02:07:15.474Z,73.80
2017-07-18T02:09:43.048Z,73.20
2017-07-18T02:12:10.579Z,74.20
2017-07-18T02:14:38.909Z,73.60
2017-07-18T02:17:06.449Z,73.60
2017-07-18T02:19:33.975Z,73.60
2017-07-18T02:22:01.553Z,73.70
2017-07-18T02:24:29.109Z,73.20
2017-07-18T02:26:56.702Z,74.50
2017-07-18T02:29:24.231Z,74.00
2017-07-18T02:31:52.569Z,73.70
2017-07-18T02:34:20.098Z,73.60
2017-07-18T02:36:47.746Z,73.80
2017-07-18T02:39:15.270Z,73.70
2017-07-18T02:41:43.597Z,74.20
2017-07-18T02:44:11.134Z,74.10
2017-07-18T02:46:38.708Z,74.10
2017-07-18T02:49:06.236Z,74.40
2017-07-18T02:51:33.816Z,74.30
2017-07-18T02:54:01.372Z,74.40
2017-07-18T02:56:28.965Z,74.30
2017-07-18T02:58:56.516Z,74.80
2017-07-18T03:01:24.139Z,74.80
2017-07-18T03:03:52.493Z,74.80
2017-07-18T03:06:20.138Z,74.90
2017-07-18T03:08:47.674Z,74.40
2017-07-18T03:11:15.258Z,74.70
2017-07-18T03:13:42.791Z,74.70
2017-07-18T03:16:10.348Z,74.50
2017-07-18T03:18:37.894Z,74.30
2017-07-18T03:21:05.469Z,74.60
2017-07-18T03:23:33.005Z,74.70
2017-07-18T03:26:00.580Z,74.80
2017-07-18T03:28:28.106Z,74.80
2017-07-18T03:30:55.687Z,75.10
2017-07-18T03:33:23.211Z,75.50
2017-07-18T03:35:50.735Z,75.40
2017-07-18T03:38:18.346Z,75.60
2017-07-18T03:40:46.732Z,75.70
2017-07-18T03:43:14.501Z,75.60
2017-07-18T03:45:42.173Z,75.60
2017-07-18T03:48:09.765Z,75.20
2017-07-18T03:50:37.304Z,75.20
2017-07-18T03:53:04.883Z,75.50
2017-07-18T03:55:32.416Z,75.40
2017-07-18T03:57:59.987Z,75.20
2017-07-18T04:00:28.320Z,76.00
2017-07-18T04:02:55.893Z,76.00
2017-07-18T04:05:23.430Z,76.00
2017-07-18T04:07:51.015Z,76.20
2017-07-18T04:10:18.546Z,76.20
2017-07-18T04:12:46.086Z,76.10
2017-07-18T04:15:13.674Z,76.60
2017-07-18T04:17:41.233Z,76.10
2017-07-18T04:20:08.810Z,75.90
2017-07-18T04:22:36.419Z,76.00
2017-07-18T04:25:03.993Z,75.90
2017-07-18T04:27:32.292Z,76.20
2017-07-18T04:29:59.877Z,76.10
2017-07-18T04:32:27.413Z,75.80
2017-07-18T04:34:54.948Z,75.50
2017-07-18T04:37:22.508Z,76.20
2017-07-18T04:39:50.037Z,76.30
2017-07-18T04:42:17.612Z,76.30
2017-07-18T04:44:45.170Z,76.30
2017-07-18T04:47:13.595Z,75.90
2017-07-18T04:49:41.138Z,75.90
2017-07-18T04:52:08.709Z,76.60
2017-07-18T04:54:36.236Z,76.90
2017-07-18T04:57:03.813Z,76.80
2017-07-18T04:59:31.376Z,76.70
2017-07-18T05:01:58.944Z,76.10
2017-07-18T05:04:26.480Z,76.20
2017-07-18T05:06:54.058Z,76.40
2017-07-18T05:09:21.584Z,76.00
2017-07-18T05:11:49.170Z,75.80
2017-07-18T05:14:16.712Z,76.30
2017-07-18T05:16:44.298Z,75.50
2017-07-18T05:19:11.840Z,75.70
2017-07-18T05:21:39.407Z,75.00
2017-07-18T05:24:06.944Z,74.90
2017-07-18T05:26:34.512Z,75.10
2017-07-18T05:29:02.043Z,74.80
2017-07-18T05:31:29.618Z,74.90
2017-07-18T05:33:57.160Z,74.50
2017-07-18T05:36:24.730Z,73.70
2017-07-18T05:38:52.256Z,73.00
2017-07-18T05:41:19.840Z,73.00
2017-07-18T05:43:47.652Z,73.00
2017-07-18T05:46:15.194Z,72.60
2017-07-18T05:48:42.781Z,72.10
2017-07-18T05:51:11.075Z,71.60
2017-07-18T05:53:38.631Z,71.60
2017-07-18T05:56:06.168Z,71.00
2017-07-18T05:58:33.750Z,71.10
2017-07-18T06:01:02.065Z,71.50
2017-07-18T06:03:29.628Z,70.70
2017-07-18T06:05:57.167Z,71.10
2017-07-18T06:08:24.735Z,69.50
2017-07-18T06:10:52.264Z,67.90
2017-07-18T06:13:19.828Z,67.80
2017-07-18T06:15:47.378Z,67.10
2017-07-18T06:18:14.971Z,66.90
2017-07-18T06:20:42.513Z,67.60
2017-07-18T06:23:10.102Z,65.00
2017-07-18T06:25:37.632Z,65.60
2017-07-18T06:28:05.204Z,65.30
2017-07-18T06:30:32.769Z,63.50
2017-07-18T06:33:01.121Z,64.00
2017-07-18T06:35:28.655Z,64.00
2017-07-18T06:37:56.224Z,63.60
2017-07-18T06:40:24.537Z,63.90
2017-07-18T06:42:52.109Z,63.90
2017-07-18T06:45:19.640Z,64.60
2017-07-18T06:47:47.228Z,65.10
2017-07-18T06:50:15.537Z,66.00
2017-07-18T06:52:43.138Z,65.90
2017-07-18T06:55:10.720Z,65.20
2017-07-18T06:57:38.259Z,65.30
2017-07-18T07:00:05.837Z,65.00
2017-07-18T07:02:33.388Z,64.80
2017-07-18T07:05:00.978Z,63.70
2017-07-18T07:07:28.534Z,62.10
2017-07-18T07:09:56.110Z,62.00
2017-07-18T07:12:23.649Z,61.70
2017-07-18T07:14:51.227Z,61.00
2017-07-18T07:17:18.765Z,60.80
2017-07-18T07:19:46.340Z,60.80
2017-07-18T07:22:14.652Z,60.00
2017-07-18T07:24:42.234Z,60.00
2017-07-18T07:27:09.773Z,59.70
2017-07-18T07:29:37.370Z,60.50
2017-07-18T07:32:05.661Z,61.10
2017-07-18T07:34:33.208Z,61.20
2017-07-18T07:37:00.780Z,61.40
2017-07-18T07:39:29.085Z,60.90
2017-07-18T07:41:56.660Z,60.70
2017-07-18T07:44:24.204Z,60.40
2017-07-18T07:46:51.773Z,60.80
2017-07-18T07:49:20.075Z,60.10
2017-07-18T07:51:47.666Z,60.00
2017-07-18T07:54:15.200Z,59.50
2017-07-18T07:56:42.749Z,59.70
2017-07-18T07:59:12.289Z,59.90
2017-07-18T08:01:40.388Z,58.10
2017-07-18T08:04:08.639Z,58.80
2017-07-18T08:06:37.214Z,58.20
2017-07-18T08:09:07.271Z,58.20
2017-07-18T08:11:34.866Z,59.30
2017-07-18T08:14:02.407Z,59.10
2017-07-18T08:16:29.944Z,58.10
2017-07-18T08:18:57.521Z,58.10
2017-07-18T08:21:25.060Z,58.00
2017-07-18T08:23:52.627Z,58.50
2017-07-18T08:26:20.965Z,59.30
2017-07-18T08:28:48.495Z,59.20
2017-07-18T08:31:16.096Z,57.60
2017-07-18T08:33:43.650Z,58.40
2017-07-18T08:36:11.199Z,57.20
2017-07-18T08:38:38.767Z,57.50
2017-07-18T08:41:06.308Z,56.90
2017-07-18T08:43:33.874Z,56.20
2017-07-18T08:46:01.409Z,56.50
2017-07-18T08:48:28.984Z,56.30
2017-07-18T08:50:56.519Z,57.10
2017-07-18T08:53:24.104Z,56.20
2017-07-18T08:55:51.639Z,55.40
2017-07-18T08:58:19.231Z,55.70
2017-07-18T09:00:46.768Z,56.10
2017-07-18T09:03:14.365Z,56.30
2017-07-18T09:05:42.676Z,56.00
2017-07-18T09:08:10.267Z,56.00
2017-07-18T09:10:37.803Z,55.60
2017-07-18T09:13:05.378Z,56.50
2017-07-18T09:15:33.691Z,53.40
2017-07-18T09:18:01.314Z,53.40
2017-07-18T09:20:28.839Z,54.10
2017-07-18T09:22:56.412Z,54.30
2017-07-18T09:25:23.945Z,53.80
2017-07-18T09:27:51.511Z,55.60
2017-07-18T09:30:19.062Z,54.60
2017-07-18T09:32:46.628Z,53.40
2017-07-18T09:35:14.176Z,53.20
2017-07-18T09:37:41.764Z,54.20
2017-07-18T09:40:09.312Z,53.10
2017-07-18T09:42:36.911Z,52.80
2017-07-18T09:45:04.537Z,52.50
2017-07-18T09:47:32.103Z,53.20
2017-07-18T09:49:59.641Z,52.90
2017-07-18T09:52:27.269Z,52.20
2017-07-18T09:54:54.808Z,51.50
2017-07-18T09:57:22.380Z,51.00
2017-07-18T09:59:49.928Z,52.30
2017-07-18T10:02:17.575Z,51.40
2017-07-18T10:04:45.141Z,50.80
2017-07-18T10:07:14.054Z,49.40
2017-07-18T10:09:41.645Z,49.30
2017-07-18T10:12:09.179Z,48.90
2017-07-18T10:14:36.744Z,49.50
2017-07-18T10:17:05.050Z,48.50
2017-07-18T10:19:34.046Z,48.50
2017-07-18T10:22:01.934Z,48.40
2017-07-18T10:24:29.530Z,48.90
2017-07-18T10:26:57.059Z,48.50
2017-07-18T10:29:25.576Z,47.50
2017-07-18T10:31:53.194Z,46.30
2017-07-18T10:34:20.771Z,47.50
2017-07-18T10:36:48.307Z,46.70
2017-07-18T10:39:15.906Z,46.30
2017-07-18T10:41:43.453Z,45.40
2017-07-18T10:44:11.032Z,45.00
2017-07-18T10:46:38.564Z,45.20
2017-07-18T10:49:06.140Z,44.90
2017-07-18T10:51:33.676Z,44.60
2017-07-18T10:54:01.250Z,44.80
2017-07-18T10:56:29.550Z,45.60
2017-07-18T10:58:57.126Z,45.60
2017-07-18T11:01:24.654Z,44.90
2017-07-18T11:03:52.236Z,44.20
2017-07-18T11:06:19.766Z,44.40
2017-07-18T11:08:47.355Z,44.40
2017-07-18T11:11:14.912Z,43.80
2017-07-18T11:13:42.447Z,44.10
2017-07-18T11:16:10.023Z,44.40
2017-07-18T11:18:37.556Z,44.10
2017-07-18T11:21:05.128Z,44.30
2017-07-18T11:23:32.677Z,43.10
2017-07-18T11:26:00.269Z,43.70
2017-07-18T11:28:28.564Z,43.60
2017-07-18T11:30:56.139Z,43.50
2017-07-18T11:33:23.672Z,44.10
2017-07-18T11:35:51.212Z,42.50
2017-07-18T11:38:18.783Z,42.10
2017-07-18T11:40:46.339Z,42.50
2017-07-18T11:43:13.940Z,42.50
2017-07-18T11:45:41.489Z,42.10
2017-07-18T11:48:09.064Z,42.40
2017-07-18T11:50:36.608Z,44.40
2017-07-18T11:53:04.955Z,42.90
2017-07-18T11:55:32.599Z,42.90
2017-07-18T11:58:00.171Z,42.40
2017-07-18T12:00:27.712Z,42.20
2017-07-18T12:02:55.283Z,40.80
2017-07-18T12:05:22.824Z,41.40
2017-07-18T12:07:50.409Z,40.80
2017-07-18T12:10:18.035Z,40.60
2017-07-18T12:12:45.640Z,38.80
2017-07-18T12:15:13.191Z,39.00
2017-07-18T12:17:40.772Z,40.40
2017-07-18T12:20:08.353Z,40.20
2017-07-18T12:22:35.935Z,39.10
2017-07-18T12:25:04.273Z,39.30
2017-07-18T12:27:31.898Z,39.30
2017-07-18T12:29:59.492Z,39.80
2017-07-18T12:32:27.097Z,37.70
2017-07-18T12:34:54.667Z,37.90
2017-07-18T12:37:22.224Z,37.30
2017-07-18T12:39:49.832Z,38.00
2017-07-18T12:42:17.581Z,38.40
2017-07-18T12:44:45.203Z,38.40
2017-07-18T12:47:12.768Z,36.80
2017-07-18T12:49:40.352Z,37.20
2017-07-18T12:52:07.908Z,38.50
2017-07-18T12:54:35.498Z,38.70
2017-07-18T12:57:03.172Z,38.30
2017-07-18T12:59:30.713Z,36.70
2017-07-18T13:01:58.288Z,36.00
2017-07-18T13:04:25.824Z,36.50
2017-07-18T13:06:55.424Z,36.30
2017-07-18T13:09:23.148Z,36.90
2017-07-18T13:11:50.738Z,36.40
2017-07-18T13:14:18.299Z,37.40
2017-07-18T13:16:46.074Z,37.90
2017-07-18T13:19:13.689Z,38.00
2017-07-18T13:21:41.326Z,35.70
2017-07-18T13:24:09.640Z,36.60
2017-07-18T13:26:37.211Z,36.60
2017-07-18T13:29:04.745Z,36.50
2017-07-18T13:31:32.325Z,37.40
2017-07-18T13:34:00.620Z,36.00
2017-07-18T13:36:28.188Z,35.90
2017-07-18T13:38:55.712Z,35.50
2017-07-18T13:41:23.295Z,37.20
2017-07-18T13:43:50.846Z,36.90
2017-07-18T13:46:18.426Z,35.50
2017-07-18T13:48:45.987Z,33.80
2017-07-18T13:51:13.560Z,35.90
2017-07-18T13:53:41.127Z,36.00
2017-07-18T13:56:08.657Z,34.30
2017-07-18T13:58:36.229Z,34.10
2017-07-18T14:01:04.529Z,32.90
2017-07-18T14:03:32.108Z,32.90
2017-07-18T14:05:59.646Z,33.90
2017-07-18T14:08:27.214Z,34.70
2017-07-18T14:10:54.756Z,34.30
2017-07-18T14:13:22.334Z,33.40
2017-07-18T14:15:49.869Z,33.60
2017-07-18T14:18:17.448Z,32.40
2017-07-18T14:20:45.013Z,34.00
2017-07-18T14:23:12.593Z,33.90
2017-07-18T14:25:40.896Z,35.50
2017-07-18T14:28:08.464Z,35.60
2017-07-18T14:30:36.004Z,33.70
2017-07-18T14:33:03.581Z,32.50
2017-07-18T14:35:31.121Z,34.10
2017-07-18T14:37:58.709Z,33.20
2017-07-18T14:40:26.249Z,33.70
2017-07-18T14:42:53.827Z,35.80
2017-07-18T14:45:21.366Z,32.70
2017-07-18T14:47:48.953Z,32.30
2017-07-18T14:50:17.281Z,35.10
2017-07-18T14:52:44.849Z,34.50
2017-07-18T14:55:12.399Z,31.80
2017-07-18T14:57:40.335Z,33.90
2017-07-18T15:00:07.874Z,33.90
2017-07-18T15:02:35.408Z,31.60
2017-07-18T15:05:02.976Z,31.90
2017-07-18T15:07:30.512Z,32.70
2017-07-18T15:09:58.084Z,32.70
2017-07-18T15:12:25.611Z,33.20
2017-07-18T15:14:53.180Z,31.80
2017-07-18T15:17:20.725Z,30.00
2017-07-18T15:19:49.123Z,33.90
2017-07-18T15:22:16.701Z,33.80
2017-07-18T15:24:44.320Z,31.00
2017-07-18T15:27:11.867Z,30.80
2017-07-18T15:29:39.434Z,31.30
2017-07-18T15:32:06.973Z,32.30
2017-07-18T15:34:34.535Z,32.00
2017-07-18T15:37:02.075Z,33.00
2017-07-18T15:39:29.648Z,33.60
2017-07-18T15:41:57.187Z,28.60
2017-07-18T15:44:24.799Z,31.50
2017-07-18T15:46:52.331Z,31.40
2017-07-18T15:49:19.860Z,32.00
2017-07-18T15:51:47.436Z,30.80
2017-07-18T15:54:14.975Z,32.20
2017-07-18T15:56:42.579Z,33.00
2017-07-18T15:59:10.124Z,32.70
2017-07-18T16:01:38.455Z,34.50
2017-07-18T16:04:06.217Z,34.40
2017-07-18T16:06:33.783Z,35.50
2017-07-18T16:09:02.079Z,36.50
2017-07-18T16:11:29.646Z,36.50
2017-07-18T16:13:57.196Z,37.10
2017-07-18T16:16:24.770Z,38.70
2017-07-18T16:18:53.103Z,39.40
2017-07-18T16:21:20.636Z,39.30
2017-07-18T16:23:48.218Z,39.30
2017-07-18T16:26:16.542Z,40.90
2017-07-18T16:28:44.137Z,40.90
2017-07-18T16:31:12.439Z,41.00
2017-07-18T16:33:40.019Z,40.90
2017-07-18T16:36:07.552Z,43.20
2017-07-18T16:38:35.158Z,40.90
2017-07-18T16:41:02.709Z,42.30
2017-07-18T16:43:30.277Z,43.50
2017-07-18T16:45:57.817Z,43.50
2017-07-18T16:48:25.395Z,43.30
2017-07-18T16:50:52.927Z,43.00
2017-07-18T16:53:20.523Z,43.70
2017-07-18T16:55:48.156Z,43.90
2017-07-18T16:58:16.472Z,43.60
2017-07-18T17:00:44.051Z,43.60
2017-07-18T17:03:11.585Z,45.00
2017-07-18T17:05:39.151Z,42.60
2017-07-18T17:08:07.456Z,45.20
2017-07-18T17:10:35.022Z,45.20
2017-07-18T17:13:02.599Z,43.80
2017-07-18T17:15:30.901Z,44.70
2017-07-18T17:17:58.430Z,44.60
2017-07-18T17:20:25.995Z,43.40
2017-07-18T17:22:53.523Z,43.70
2017-07-18T17:25:21.104Z,46.30
2017-07-18T17:27:48.651Z,44.50
2017-07-18T17:30:16.239Z,43.50
2017-07-18T17:32:44.555Z,46.30
2017-07-18T17:35:12.124Z,46.30
2017-07-18T17:37:39.651Z,43.30
2017-07-18T17:40:07.212Z,42.00
2017-07-18T17:42:34.740Z,42.30
2017-07-18T17:45:02.304Z,44.50
2017-07-18T17:47:29.852Z,43.90
2017-07-18T17:49:57.431Z,44.80
2017-07-18T17:52:24.967Z,43.20
2017-07-18T17:54:52.540Z,42.50
2017-07-18T17:57:20.075Z,44.60
2017-07-18T17:59:47.648Z,45.50
2017-07-18T18:02:15.192Z,45.80
2017-07-18T18:04:42.769Z,45.40
2017-07-18T18:07:10.313Z,47.20
2017-07-18T18:09:37.880Z,47.50
2017-07-18T18:12:05.416Z,48.20
2017-07-18T18:14:33.778Z,49.40
2017-07-18T18:17:01.318Z,49.30
2017-07-18T18:19:28.856Z,49.70
2017-07-18T18:21:56.435Z,50.90
2017-07-18T18:24:23.977Z,51.20
2017-07-18T18:26:51.559Z,51.10
2017-07-18T18:29:19.095Z,51.20
2017-07-18T18:31:46.684Z,51.30
2017-07-18T18:34:14.243Z,52.30
2017-07-18T18:36:41.780Z,53.10
2017-07-18T18:39:09.351Z,53.70
2017-07-18T18:41:36.911Z,53.20
2017-07-18T18:44:04.490Z,53.50
2017-07-18T18:46:32.014Z,53.30
2017-07-18T18:48:59.576Z,53.40
2017-07-18T18:51:27.111Z,54.10
2017-07-18T18:53:54.684Z,53.20
2017-07-18T18:56:22.220Z,53.60
2017-07-18T18:58:49.780Z,53.30
2017-07-18T19:01:17.307Z,52.90
2017-07-18T19:03:44.884Z,53.30
2017-07-18T19:06:13.182Z,54.00
2017-07-18T19:08:40.740Z,54.00
2017-07-18T19:11:08.310Z,54.00
2017-07-18T19:13:35.843Z,54.70
2017-07-18T19:16:03.420Z,55.50
2017-07-18T19:18:31.720Z,55.40
2017-07-18T19:20:59.290Z,55.60
2017-07-18T19:23:26.819Z,56.20
2017-07-18T19:25:54.381Z,56.50
2017-07-18T19:28:21.911Z,56.10
2017-07-18T19:30:49.486Z,54.10
2017-07-18T19:33:17.024Z,53.90
2017-07-18T19:35:44.607Z,54.00
2017-07-18T19:38:12.911Z,56.10
2017-07-18T19:40:40.520Z,56.00
2017-07-18T19:43:08.054Z,54.70
2017-07-18T19:45:36.408Z,56.90
2017-07-18T19:48:04.729Z,55.30
2017-07-18T19:50:32.318Z,55.20
2017-07-18T19:52:59.852Z,56.60
2017-07-18T19:55:27.385Z,58.10
2017-07-18T19:57:54.968Z,58.20
2017-07-18T20:00:23.308Z,58.90
2017-07-18T20:02:50.840Z,58.80
2017-07-18T20:05:18.433Z,58.50
2017-07-18T20:07:45.982Z,58.50
2017-07-18T20:10:13.520Z,58.50
2017-07-18T20:12:41.112Z,58.30
2017-07-18T20:15:08.655Z,58.70
2017-07-18T20:17:36.231Z,59.00
2017-07-18T20:20:03.776Z,59.20
2017-07-18T20:22:31.333Z,59.60
2017-07-18T20:24:59.639Z,60.30
2017-07-18T20:27:27.204Z,60.00
2017-07-18T20:29:54.742Z,60.50
2017-07-18T20:32:22.321Z,60.60
2017-07-18T20:34:49.853Z,61.20
2017-07-18T20:37:17.400Z,61.30
2017-07-18T20:39:44.977Z,61.40
2017-07-18T20:42:13.283Z,61.10
2017-07-18T20:44:40.841Z,60.90
2017-07-18T20:47:08.374Z,61.60
2017-07-18T20:49:35.926Z,61.80
2017-07-18T20:52:03.462Z,61.70
2017-07-18T20:54:31.023Z,61.50
2017-07-18T20:56:58.582Z,61.80
2017-07-18T20:59:26.139Z,62.10
2017-07-18T21:01:54.448Z,62.10
2017-07-18T21:04:22.017Z,61.60
2017-07-18T21:06:49.632Z,61.90
2017-07-18T21:09:17.206Z,62.10
2017-07-18T21:11:44.930Z,62.30
2017-07-18T21:14:12.466Z,62.80
2017-07-18T21:16:40.024Z,62.80
2017-07-18T21:19:07.563Z,62.70
2017-07-18T21:21:35.134Z,62.60
2017-07-18T21:24:02.672Z,62.60
2017-07-18T21:26:30.228Z,62.70
2017-07-18T21:28:58.590Z,63.60
2017-07-18T21:31:26.144Z,63.60
2017-07-18T21:33:53.677Z,63.70
2017-07-18T21:36:21.256Z,64.00
2017-07-18T21:38:48.796Z,65.10
2017-07-18T21:41:16.345Z,64.10
2017-07-18T21:43:44.679Z,63.60
2017-07-18T21:46:12.326Z,63.60
2017-07-18T21:48:39.879Z,63.90
2017-07-18T21:51:07.413Z,63.80
2017-07-18T21:53:34.976Z,63.60
2017-07-18T21:56:02.545Z,63.80
2017-07-18T21:58:30.104Z,64.00
2017-07-18T22:00:57.647Z,63.80
2017-07-18T22:03:26.059Z,63.90
2017-07-18T22:05:53.597Z,63.90
2017-07-18T22:08:21.152Z,63.40
2017-07-18T22:10:48.686Z,63.10
2017-07-18T22:13:16.260Z,63.50
2017-07-18T22:15:43.816Z,64.10
2017-07-18T22:18:12.136Z,63.80
2017-07-18T22:20:39.692Z,63.70
2017-07-18T22:23:07.216Z,64.40
2017-07-18T22:25:34.791Z,63.60
2017-07-18T22:28:03.099Z,63.60
2017-07-18T22:30:30.673Z,63.60
2017-07-18T22:32:58.208Z,64.10
2017-07-18T22:35:25.780Z,64.40
2017-07-18T22:37:53.359Z,64.00
2017-07-18T22:40:21.672Z,64.90
2017-07-18T22:42:49.212Z,64.90
2017-07-18T22:45:16.769Z,64.20
2017-07-18T22:47:44.315Z,64.90
2017-07-18T22:50:11.888Z,63.80
2017-07-18T22:52:39.427Z,64.00
2017-07-18T22:55:06.967Z,64.90
2017-07-18T22:57:34.520Z,64.00
2017-07-18T23:00:02.054Z,63.90
2017-07-18T23:02:29.610Z,64.10
2017-07-18T23:04:57.135Z,64.70
2017-07-18T23:07:24.693Z,65.90
2017-07-18T23:09:52.227Z,66.50
2017-07-18T23:12:19.794Z,65.10
2017-07-18T23:14:47.337Z,65.60
2017-07-18T23:17:14.911Z,66.20
2017-07-18T23:19:42.463Z,67.30
2017-07-18T23:22:10.039Z,67.10
2017-07-18T23:24:37.580Z,66.00
2017-07-18T23:27:05.115Z,65.80
2017-07-18T23:29:32.665Z,65.50
2017-07-18T23:32:00.199Z,65.60
2017-07-18T23:34:27.758Z,65.80
2017-07-18T23:36:55.292Z,65.70
2017-07-18T23:39:22.848Z,65.70
2017-07-18T23:41:50.384Z,65.90
2017-07-18T23:44:17.949Z,66.10
2017-07-18T23:46:45.483Z,66.30
2017-07-18T23:49:13.039Z,66.00
2017-07-18T23:51:40.575Z,65.80
2017-07-18T23:54:08.112Z,65.90
2017-07-18T23:56:35.672Z,65.50
2017-07-18T23:59:03.210Z,66.20
